Kmarin Singapore — HOBF — position and weather

sailwx.info

Track history (hours):
 
Tides and Currents Weather Stations Pressure Air Temp Water Temp Dewpoint Dewpoint Depression Visibility Wind Speed Wind Dir Waves Ship Positions

Kmarin Singapore

Last reported at 2018-Jan-12 07:07 UTC. Time now 2018-Jan-24 09:29 UTC.
Position N 34°18' E 129°55'.
Warning: this ship's position is 12 days out of date.

Length 200 m; draft 12.7 m.

Type: Cargo ship. MMSI: 374794000.

Date/timePositionNaut miles runAvg speedWind from/ knotsBaromVisibWave heightAir tempDewpointWater temp
2018-Jan-12 07:07N 34°18' E 129°55'911.1
2018-Jan-12 06:17N 34°24' E 130°04'411.2
2018-Jan-12 05:55N 34°27' E 130°07'511.2
2018-Jan-12 05:27N 34°30' E 130°12'  
2018-Jan-09 00:22N 41°24' E 140°24'3 9.5
2018-Jan-09 00:00N 41°26' E 140°28'610.9
2018-Jan-08 23:30N 41°29' E 140°34'510.7
2018-Jan-08 23:00N 41°33' E 140°40'510.0
2018-Jan-08 22:30N 41°36' E 140°45'5 9.4
2018-Jan-08 22:00N 41°38' E 140°51'5 9.6
2018-Jan-08 21:30N 41°38' E 140°57'5 9.2
2018-Jan-08 21:00N 41°39' E 141°03'510.7
2018-Jan-08 20:30N 41°40' E 141°11'612.0
2018-Jan-08 20:00N 41°41' E 141°19'712.1
2018-Jan-08 19:26N 41°41' E 141°28'  
Track history (hours):
 
Tides and Currents Weather Stations Pressure Air Temp Water Temp Dewpoint Dewpoint Depression Visibility Wind Speed Wind Dir Waves Ship Positions

Kmarin Singapore

Last reported at 2018-Jan-12 07:07 UTC. Time now 2018-Jan-24 09:29 UTC.
Position N 34°18' E 129°55'.
Warning: this ship's position is 12 days out of date.

Length 200 m; draft 12.7 m.

Type: Cargo ship. MMSI: 374794000.

Date/timePositionNaut miles runAvg speedWind from/ knotsBaromVisibWave heightAir tempDewpointWater temp
2018-Jan-12 07:07N 34°18' E 129°55'911.1
2018-Jan-12 06:17N 34°24' E 130°04'411.2
2018-Jan-12 05:55N 34°27' E 130°07'511.2
2018-Jan-12 05:27N 34°30' E 130°12'  
2018-Jan-09 00:22N 41°24' E 140°24'3 9.5
2018-Jan-09 00:00N 41°26' E 140°28'610.9
2018-Jan-08 23:30N 41°29' E 140°34'510.7
2018-Jan-08 23:00N 41°33' E 140°40'510.0
2018-Jan-08 22:30N 41°36' E 140°45'5 9.4
2018-Jan-08 22:00N 41°38' E 140°51'5 9.6
2018-Jan-08 21:30N 41°38' E 140°57'5 9.2
2018-Jan-08 21:00N 41°39' E 141°03'510.7
2018-Jan-08 20:30N 41°40' E 141°11'612.0
2018-Jan-08 20:00N 41°41' E 141°19'712.1
2018-Jan-08 19:26N 41°41' E 141°28'  

Dump ship's entire track history